Terminal Aerodrome Forecast
Issued by NWS Memphis, TN

Home | Current Version | Previous Version | Text Only | Print | Product List | Glossary On
Versions: 1 2 3 4 5 6 7 8 9 10 11 12 13 14 15 16 17 18 19 20 21 22
000
FTUS44 KMEG 021125
TAFMKL
TAF
KMKL 021125Z 0212/0312 02008KT P6SM -SHRA VCTS BKN035CB OVC045
      TEMPO 0212/0215 4SM -TSRA BKN020CB
     FM021700 34007KT P6SM VCSH BKN040 OVC150
     FM030500 35005KT P6SM BKN050=

USA.gov is the U.S. government's official web portal to all federal, state and local government web resources and services.